Time;durP1;ratioP1;P1;durP2;ratioP2;P2;SDS_P1;SDS_P2;PMS_P1;PMS_P2;Temp;Humidity;BMP_temperature;BMP_pressure;BME280_temperature;BME280_humidity;BME280_pressure;Samples;Min_cycle;Max_cycle;Signal;HPM_P1;HPM_P2
2022/01/09 00:00:17;;;;;;;3.03;2.00;;;;;;;;;;5034588;28;20276;-74
2022/01/09 00:02:42;;;;;;;2.40;1.73;;;;;;;;;;5051351;28;20251;-74
2022/01/09 00:05:11;;;;;;;2.67;1.90;;;;;;;;;;5034114;28;20223;-74
2022/01/09 00:07:39;;;;;;;3.30;2.10;;;;;;;;;;5034675;28;20233;-73
2022/01/09 00:10:07;;;;;;;2.43;1.80;;;;;;;;;;5020507;28;20272;-73
2022/01/09 00:12:38;;;;;;;2.17;1.60;;;;;;;;;;5022159;28;20227;-73
2022/01/09 00:15:04;;;;;;;3.43;1.90;;;;;;;;;;5021867;28;20227;-74
2022/01/09 00:17:32;;;;;;;1.87;1.53;;;;;;;;;;5035593;28;20638;-73
2022/01/09 00:20:00;;;;;;;1.87;1.60;;;;;;;;;;5034228;28;20256;-74
2022/01/09 00:22:39;;;;;;;1.93;1.70;;;;;;;;;;5049934;28;20227;-73
2022/01/09 00:25:07;;;;;;;2.03;1.53;;;;;;;;;;5020159;28;20711;-74
2022/01/09 00:27:33;;;;;;;1.80;1.70;;;;;;;;;;5051133;28;20219;-73
2022/01/09 00:30:01;;;;;;;3.40;1.63;;;;;;;;;;5034225;28;20595;-73
2022/01/09 00:32:29;;;;;;;2.23;1.60;;;;;;;;;;5018623;28;20222;-74
2022/01/09 00:34:59;;;;;;;2.53;1.53;;;;;;;;;;5020593;28;20222;-73
2022/01/09 00:37:25;;;;;;;2.07;1.63;;;;;;;;;;5018481;28;20227;-74
2022/01/09 00:39:51;;;;;;;4.33;1.67;;;;;;;;;;5034113;28;20714;-74
2022/01/09 00:42:25;;;;;;;2.20;1.47;;;;;;;;;;5017098;28;20307;-73
2022/01/09 00:44:53;;;;;;;2.20;1.40;;;;;;;;;;5018963;28;20211;-73
2022/01/09 00:47:21;;;;;;;1.93;1.77;;;;;;;;;;5032522;28;20699;-74
2022/01/09 00:49:47;;;;;;;3.30;1.50;;;;;;;;;;5018420;28;20223;-72
2022/01/09 00:52:15;;;;;;;2.03;1.53;;;;;;;;;;5033089;28;20219;-72
2022/01/09 00:54:43;;;;;;;2.70;1.80;;;;;;;;;;5033524;28;20229;-72
2022/01/09 00:57:09;;;;;;;2.17;1.47;;;;;;;;;;5033426;28;20292;-72
2022/01/09 00:59:35;;;;;;;2.83;1.63;;;;;;;;;;5050006;28;20306;-73
2022/01/09 01:02:05;;;;;;;2.83;1.70;;;;;;;;;;5032971;28;20227;-72
2022/01/09 01:04:30;;;;;;;2.17;1.60;;;;;;;;;;5033846;28;20243;-72
2022/01/09 01:07:00;;;;;;;1.97;1.70;;;;;;;;;;5050009;28;20216;-72
2022/01/09 01:09:30;;;;;;;3.20;1.90;;;;;;;;;;5017114;28;20208;-72
2022/01/09 01:12:00;;;;;;;2.47;1.80;;;;;;;;;;5039230;28;20296;-72
2022/01/09 01:14:29;;;;;;;2.73;1.97;;;;;;;;;;5032151;28;20294;-73
2022/01/09 01:16:57;;;;;;;2.13;1.60;;;;;;;;;;5014328;28;20315;-74
2022/01/09 01:19:22;;;;;;;2.60;2.00;;;;;;;;;;5013050;28;20219;-73
2022/01/09 01:21:53;;;;;;;1.93;1.77;;;;;;;;;;5013357;28;20228;-72
2022/01/09 01:24:21;;;;;;;3.23;1.80;;;;;;;;;;5029280;28;20252;-71
2022/01/09 01:26:46;;;;;;;1.77;1.67;;;;;;;;;;5035540;28;20579;-72
2022/01/09 01:29:15;;;;;;;2.20;2.00;;;;;;;;;;5040402;28;20271;-73
2022/01/09 01:31:43;;;;;;;2.00;1.80;;;;;;;;;;5031855;28;20223;-73
2022/01/09 01:34:12;;;;;;;3.67;2.10;;;;;;;;;;5048726;28;20237;-74
2022/01/09 01:36:40;;;;;;;2.13;1.87;;;;;;;;;;5032939;28;20238;-74
2022/01/09 01:39:08;;;;;;;3.20;2.20;;;;;;;;;;5032237;28;20223;-73
2022/01/09 01:41:37;;;;;;;3.20;2.13;;;;;;;;;;5048644;28;20247;-73
2022/01/09 01:44:09;;;;;;;2.33;2.13;;;;;;;;;;5049271;28;20710;-73
2022/01/09 01:46:34;;;;;;;2.53;2.17;;;;;;;;;;5033516;28;20215;-74
2022/01/09 01:49:07;;;;;;;2.57;2.20;;;;;;;;;;5033353;28;20227;-74
2022/01/09 01:51:35;;;;;;;4.37;2.40;;;;;;;;;;5029763;28;20220;-73
2022/01/09 01:54:04;;;;;;;2.30;2.07;;;;;;;;;;5013156;28;20228;-73
2022/01/09 01:56:32;;;;;;;3.47;2.20;;;;;;;;;;4996912;28;20362;-73
2022/01/09 01:58:59;;;;;;;2.40;2.20;;;;;;;;;;5010316;28;20228;-74
2022/01/09 02:01:29;;;;;;;3.73;2.50;;;;;;;;;;5008740;28;20232;-73
2022/01/09 02:03:57;;;;;;;4.43;2.27;;;;;;;;;;5009892;28;20228;-72
2022/01/09 02:06:23;;;;;;;3.73;2.13;;;;;;;;;;5025688;28;20290;-73
2022/01/09 02:08:49;;;;;;;2.57;2.33;;;;;;;;;;5024168;28;20635;-73
2022/01/09 02:11:14;;;;;;;2.40;2.17;;;;;;;;;;4992653;28;20279;-73
2022/01/09 02:13:41;;;;;;;2.37;2.10;;;;;;;;;;4980943;28;20295;-73
2022/01/09 02:16:16;;;;;;;2.30;2.00;;;;;;;;;;5009271;28;20225;-73
2022/01/09 02:18:46;;;;;;;2.77;2.20;;;;;;;;;;5020255;28;20306;-72
2022/01/09 02:21:15;;;;;;;2.63;2.00;;;;;;;;;;4992852;28;20236;-73
2022/01/09 02:23:41;;;;;;;2.83;2.03;;;;;;;;;;5009538;28;20220;-72
2022/01/09 02:26:11;;;;;;;2.13;1.93;;;;;;;;;;5025241;28;20225;-73
2022/01/09 02:28:39;;;;;;;4.10;2.03;;;;;;;;;;4996506;28;20224;-73
2022/01/09 02:31:04;;;;;;;2.80;1.70;;;;;;;;;;5010090;28;20224;-73
2022/01/09 02:33:32;;;;;;;2.20;1.60;;;;;;;;;;5012311;28;20605;-72
2022/01/09 02:35:58;;;;;;;2.00;1.80;;;;;;;;;;5023461;28;20223;-72
2022/01/09 02:38:26;;;;;;;1.93;1.83;;;;;;;;;;4985941;28;20217;-71
2022/01/09 02:40:52;;;;;;;2.00;1.80;;;;;;;;;;4992855;28;20304;-72
2022/01/09 02:43:18;;;;;;;1.83;1.73;;;;;;;;;;4975645;28;20228;-73
2022/01/09 02:45:47;;;;;;;2.43;1.80;;;;;;;;;;4994142;28;20574;-73
2022/01/09 02:48:17;;;;;;;2.60;1.40;;;;;;;;;;4999892;28;20216;-72
2022/01/09 02:50:57;;;;;;;1.73;1.63;;;;;;;;;;4999226;28;20226;-73
2022/01/09 02:53:23;;;;;;;1.70;1.60;;;;;;;;;;5012246;28;20240;-73
2022/01/09 02:55:51;;;;;;;1.80;1.70;;;;;;;;;;5013001;28;20217;-72
2022/01/09 02:58:17;;;;;;;1.70;1.60;;;;;;;;;;4979567;28;20220;-73
2022/01/09 03:00:45;;;;;;;2.70;1.50;;;;;;;;;;5028810;28;20217;-73
2022/01/09 03:03:11;;;;;;;3.47;1.80;;;;;;;;;;5029716;28;20307;-72
2022/01/09 03:05:36;;;;;;;2.00;1.70;;;;;;;;;;5016405;28;20242;-73
2022/01/09 03:08:07;;;;;;;1.70;1.60;;;;;;;;;;5016089;28;20590;-72
2022/01/09 03:10:35;;;;;;;2.77;1.97;;;;;;;;;;5016771;28;20220;-74
2022/01/09 03:13:01;;;;;;;2.20;1.60;;;;;;;;;;5015248;28;20230;-73
2022/01/09 03:15:27;;;;;;;2.03;1.73;;;;;;;;;;4995608;28;20285;-74
2022/01/09 03:17:54;;;;;;;2.00;1.87;;;;;;;;;;5020409;28;20228;-73
2022/01/09 03:20:22;;;;;;;2.20;1.77;;;;;;;;;;5031844;28;20303;-73
2022/01/09 03:22:51;;;;;;;3.33;2.00;;;;;;;;;;5015311;28;20709;-73
2022/01/09 03:25:22;;;;;;;4.07;1.77;;;;;;;;;;5015418;28;20228;-73
2022/01/09 03:27:50;;;;;;;3.13;2.13;;;;;;;;;;5015381;28;20219;-74
2022/01/09 03:30:19;;;;;;;2.30;1.87;;;;;;;;;;5014668;28;20228;-74
2022/01/09 03:32:47;;;;;;;3.47;2.23;;;;;;;;;;4999031;28;20713;-73
2022/01/09 03:35:17;;;;;;;3.07;2.00;;;;;;;;;;5015217;28;20231;-73
2022/01/09 03:37:44;;;;;;;3.43;2.30;;;;;;;;;;4999546;28;20243;-74
2022/01/09 03:40:18;;;;;;;3.23;2.27;;;;;;;;;;5014607;28;20302;-73
2022/01/09 03:42:52;;;;;;;3.23;2.23;;;;;;;;;;5000219;28;20228;-74
2022/01/09 03:45:22;;;;;;;2.30;2.03;;;;;;;;;;5031017;28;20721;-74
2022/01/09 03:47:50;;;;;;;3.03;2.37;;;;;;;;;;5031819;28;20690;-74
2022/01/09 03:50:18;;;;;;;2.77;2.47;;;;;;;;;;5030657;28;20224;-73
2022/01/09 03:52:47;;;;;;;3.70;2.30;;;;;;;;;;4999264;28;20228;-73
2022/01/09 03:55:12;;;;;;;2.47;2.27;;;;;;;;;;5032197;28;20224;-73
2022/01/09 03:57:43;;;;;;;3.80;2.77;;;;;;;;;;4983575;28;20604;-74
2022/01/09 04:00:16;;;;;;;2.83;2.03;;;;;;;;;;5014787;28;20228;-74
2022/01/09 04:02:48;;;;;;;5.17;2.70;;;;;;;;;;5014838;28;20228;-73
2022/01/09 04:05:16;;;;;;;3.07;2.57;;;;;;;;;;5015003;28;20281;-74
2022/01/09 04:07:44;;;;;;;2.80;2.57;;;;;;;;;;5031388;28;20219;-74
2022/01/09 04:10:14;;;;;;;2.90;2.60;;;;;;;;;;5030751;28;20224;-73
2022/01/09 04:12:48;;;;;;;4.50;2.80;;;;;;;;;;4998619;28;20311;-74
2022/01/09 04:15:16;;;;;;;3.63;2.90;;;;;;;;;;5015008;28;20231;-73
2022/01/09 04:17:51;;;;;;;2.97;2.43;;;;;;;;;;5015352;28;20252;-74
2022/01/09 04:20:22;;;;;;;3.43;2.63;;;;;;;;;;4988391;28;20232;-74
2022/01/09 04:22:48;;;;;;;3.47;2.70;;;;;;;;;;5011838;28;20291;-73
2022/01/09 04:25:14;;;;;;;3.33;3.00;;;;;;;;;;4988920;28;20285;-73
2022/01/09 04:27:47;;;;;;;3.40;2.90;;;;;;;;;;4998068;28;20673;-73
2022/01/09 04:30:12;;;;;;;3.03;2.30;;;;;;;;;;5014444;28;20216;-74
2022/01/09 04:32:38;;;;;;;4.10;2.87;;;;;;;;;;4980768;28;20228;-73
2022/01/09 04:35:07;;;;;;;3.57;2.83;;;;;;;;;;5030248;28;20224;-73
2022/01/09 04:37:37;;;;;;;3.23;2.67;;;;;;;;;;5013964;28;20228;-73
2022/01/09 04:40:08;;;;;;;3.53;3.00;;;;;;;;;;5023040;28;20640;-74
2022/01/09 04:42:55;;;;;;;4.33;2.80;;;;;;;;;;5017406;28;20278;-74
2022/01/09 04:45:24;;;;;;;3.03;2.73;;;;;;;;;;5023980;28;20219;-73
2022/01/09 04:47:51;;;;;;;3.13;2.83;;;;;;;;;;4997472;28;20220;-73
2022/01/09 04:50:24;;;;;;;3.30;3.00;;;;;;;;;;5030345;28;20737;-74
2022/01/09 04:52:59;;;;;;;4.87;3.13;;;;;;;;;;5021567;28;20310;-73
2022/01/09 04:55:29;;;;;;;3.87;2.90;;;;;;;;;;5050165;28;20227;-74
2022/01/09 04:57:55;;;;;;;4.00;3.13;;;;;;;;;;5033778;28;20227;-73
2022/01/09 05:00:23;;;;;;;4.40;3.13;;;;;;;;;;5033140;28;20649;-74
2022/01/09 05:02:48;;;;;;;4.13;3.40;;;;;;;;;;5033086;28;20247;-72
2022/01/09 05:05:14;;;;;;;3.40;3.10;;;;;;;;;;5032148;28;20258;-73
2022/01/09 05:07:44;;;;;;;3.57;2.83;;;;;;;;;;5016575;28;20223;-73
2022/01/09 05:10:10;;;;;;;5.37;3.20;;;;;;;;;;5016520;28;20237;-72
2022/01/09 05:12:38;;;;;;;4.07;2.70;;;;;;;;;;5032965;28;20318;-72
2022/01/09 05:15:07;;;;;;;3.37;3.07;;;;;;;;;;5049422;28;20223;-73
2022/01/09 05:17:35;;;;;;;3.70;3.40;;;;;;;;;;5033509;28;20619;-73
2022/01/09 05:20:06;;;;;;;4.00;3.53;;;;;;;;;;5016584;28;20211;-73
2022/01/09 05:22:31;;;;;;;3.70;3.37;;;;;;;;;;4988198;28;20306;-73
2022/01/09 05:25:06;;;;;;;3.43;3.00;;;;;;;;;;4996717;28;20250;-74
2022/01/09 05:27:34;;;;;;;3.70;3.40;;;;;;;;;;5012972;28;20250;-73
2022/01/09 05:29:59;;;;;;;4.40;3.13;;;;;;;;;;5013857;28;20227;-74
2022/01/09 05:32:25;;;;;;;4.30;3.43;;;;;;;;;;5028650;28;20315;-73
2022/01/09 05:34:51;;;;;;;3.73;3.43;;;;;;;;;;5029852;28;20227;-73
2022/01/09 05:37:16;;;;;;;6.27;3.53;;;;;;;;;;5012980;28;20247;-74
2022/01/09 05:39:44;;;;;;;4.80;3.80;;;;;;;;;;5030059;28;20224;-73
2022/01/09 05:42:10;;;;;;;4.00;3.60;;;;;;;;;;5016460;28;20315;-73
2022/01/09 05:44:36;;;;;;;4.60;3.70;;;;;;;;;;5018573;28;20295;-74
2022/01/09 05:47:02;;;;;;;4.77;3.47;;;;;;;;;;4998916;28;20649;-73
2022/01/09 05:49:27;;;;;;;4.37;3.87;;;;;;;;;;5013732;28;20216;-73
2022/01/09 05:51:58;;;;;;;4.10;3.60;;;;;;;;;;5013854;28;20722;-73
2022/01/09 05:54:25;;;;;;;4.67;3.93;;;;;;;;;;5013898;28;20212;-73
2022/01/09 05:56:55;;;;;;;4.80;3.80;;;;;;;;;;5013644;28;20220;-74
2022/01/09 05:59:21;;;;;;;5.80;4.23;;;;;;;;;;5013041;28;20705;-74
2022/01/09 06:01:47;;;;;;;3.97;3.67;;;;;;;;;;5034859;28;20234;-73
2022/01/09 06:04:13;;;;;;;3.93;3.47;;;;;;;;;;5048015;28;20234;-72
2022/01/09 06:06:38;;;;;;;4.40;3.73;;;;;;;;;;5049495;28;20604;-73
2022/01/09 06:09:08;;;;;;;4.17;3.83;;;;;;;;;;5032941;28;20227;-74
2022/01/09 06:11:36;;;;;;;4.07;3.60;;;;;;;;;;5049026;28;20230;-73
2022/01/09 06:14:04;;;;;;;4.70;3.80;;;;;;;;;;5048757;28;20264;-73
2022/01/09 06:16:32;;;;;;;4.97;4.20;;;;;;;;;;5049119;28;20235;-73
2022/01/09 06:18:57;;;;;;;4.33;3.50;;;;;;;;;;5033186;28;20605;-74
2022/01/09 06:21:28;;;;;;;3.87;3.53;;;;;;;;;;5052165;28;20215;-72
2022/01/09 06:23:54;;;;;;;4.17;3.80;;;;;;;;;;5054197;28;20226;-73
2022/01/09 06:26:22;;;;;;;6.57;4.00;;;;;;;;;;5020057;28;20692;-73
2022/01/09 06:28:50;;;;;;;6.07;4.00;;;;;;;;;;5019317;28;20223;-73
2022/01/09 06:31:17;;;;;;;5.53;4.10;;;;;;;;;;5019806;28;20302;-72
2022/01/09 06:33:45;;;;;;;4.17;3.80;;;;;;;;;;5036034;28;20302;-73
2022/01/09 06:36:13;;;;;;;4.20;3.80;;;;;;;;;;5005976;28;20299;-73
2022/01/09 06:38:40;;;;;;;4.70;4.03;;;;;;;;;;5014187;28;20315;-73
2022/01/09 06:41:06;;;;;;;6.77;4.13;;;;;;;;;;4999790;28;20232;-73
2022/01/09 06:43:34;;;;;;;4.87;3.80;;;;;;;;;;4994814;28;20229;-72
2022/01/09 06:45:59;;;;;;;4.17;3.77;;;;;;;;;;5012059;28;20255;-73
2022/01/09 06:48:25;;;;;;;4.30;3.90;;;;;;;;;;5032230;28;20211;-73
2022/01/09 06:50:53;;;;;;;5.53;4.00;;;;;;;;;;5016275;28;20230;-73
2022/01/09 06:53:20;;;;;;;4.40;4.00;;;;;;;;;;4995828;28;20220;-72
2022/01/09 06:55:51;;;;;;;4.53;4.10;;;;;;;;;;5012653;28;20686;-74
2022/01/09 06:58:18;;;;;;;4.60;4.17;;;;;;;;;;5004299;28;20232;-74
2022/01/09 07:00:47;;;;;;;4.27;3.67;;;;;;;;;;4999999;28;20251;-73
2022/01/09 07:03:15;;;;;;;4.10;3.70;;;;;;;;;;5033282;28;20278;-74
2022/01/09 07:05:43;;;;;;;4.03;3.73;;;;;;;;;;5016675;28;20216;-73
2022/01/09 07:08:08;;;;;;;3.90;3.60;;;;;;;;;;5031918;28;20232;-75
2022/01/09 07:10:39;;;;;;;4.10;3.70;;;;;;;;;;5000219;28;20220;-74
2022/01/09 07:13:04;;;;;;;3.87;3.53;;;;;;;;;;5015060;28;20240;-73
2022/01/09 07:15:30;;;;;;;4.13;3.80;;;;;;;;;;5032330;28;20231;-73
2022/01/09 07:17:56;;;;;;;5.07;3.93;;;;;;;;;;5031672;28;20288;-73
2022/01/09 07:20:24;;;;;;;3.90;3.57;;;;;;;;;;5031598;28;20231;-73
2022/01/09 07:22:52;;;;;;;4.40;4.00;;;;;;;;;;5031745;28;20227;-73
2022/01/09 07:25:27;;;;;;;4.20;3.80;;;;;;;;;;5032864;28;20228;-73
2022/01/09 07:27:55;;;;;;;3.80;3.47;;;;;;;;;;5032213;28;20266;-73
2022/01/09 07:30:26;;;;;;;4.20;3.60;;;;;;;;;;5015355;28;20220;-74
2022/01/09 07:32:51;;;;;;;3.97;3.57;;;;;;;;;;5031290;28;20248;-73
2022/01/09 07:35:17;;;;;;;4.00;3.57;;;;;;;;;;5014744;28;20263;-73
2022/01/09 07:37:42;;;;;;;3.67;3.30;;;;;;;;;;5015326;28;20326;-73
2022/01/09 07:40:11;;;;;;;3.83;3.43;;;;;;;;;;5031393;28;20228;-73
2022/01/09 07:42:39;;;;;;;4.27;3.87;;;;;;;;;;5014664;28;20714;-74
2022/01/09 07:45:09;;;;;;;3.77;3.47;;;;;;;;;;5031599;28;20224;-73
2022/01/09 07:47:35;;;;;;;4.30;3.90;;;;;;;;;;5015259;28;20216;-73
2022/01/09 07:50:01;;;;;;;3.50;3.20;;;;;;;;;;5015133;28;20285;-73
2022/01/09 07:52:29;;;;;;;4.17;3.77;;;;;;;;;;5014879;28;20295;-73
2022/01/09 07:54:55;;;;;;;3.67;3.20;;;;;;;;;;4999614;28;20307;-73
2022/01/09 07:57:21;;;;;;;3.57;3.27;;;;;;;;;;5031348;28;20271;-74
2022/01/09 07:59:46;;;;;;;3.40;3.10;;;;;;;;;;5015362;28;20230;-73
2022/01/09 08:02:17;;;;;;;3.30;3.00;;;;;;;;;;5014454;28;20224;-74
2022/01/09 08:04:42;;;;;;;3.03;2.80;;;;;;;;;;5031567;28;20311;-74
2022/01/09 08:07:08;;;;;;;2.93;2.73;;;;;;;;;;5000863;28;20315;-74
2022/01/09 08:09:36;;;;;;;3.40;3.10;;;;;;;;;;5015030;28;20678;-74
2022/01/09 08:12:10;;;;;;;3.00;2.80;;;;;;;;;;5030143;28;20303;-73
2022/01/09 08:14:38;;;;;;;2.80;2.50;;;;;;;;;;5015792;28;20247;-74
2022/01/09 08:17:04;;;;;;;2.70;2.50;;;;;;;;;;5014424;28;20724;-74
2022/01/09 08:19:31;;;;;;;2.43;2.23;;;;;;;;;;5014610;28;20216;-74
2022/01/09 08:22:06;;;;;;;2.60;2.40;;;;;;;;;;4998082;28;20733;-74
2022/01/09 08:24:35;;;;;;;2.63;2.10;;;;;;;;;;5025344;28;20704;-73
2022/01/09 08:27:01;;;;;;;2.30;2.10;;;;;;;;;;5031313;28;20224;-74
2022/01/09 08:29:31;;;;;;;2.30;2.10;;;;;;;;;;5033909;28;20219;-73
2022/01/09 08:31:59;;;;;;;2.60;2.40;;;;;;;;;;5034636;28;20224;-74
2022/01/09 08:34:30;;;;;;;2.53;2.33;;;;;;;;;;5017733;28;20594;-72
2022/01/09 08:36:57;;;;;;;2.40;2.20;;;;;;;;;;5013388;28;20271;-72
2022/01/09 08:39:27;;;;;;;2.57;2.37;;;;;;;;;;5006056;28;20223;-73
2022/01/09 08:41:53;;;;;;;2.60;2.40;;;;;;;;;;5030191;28;20385;-73
2022/01/09 08:44:23;;;;;;;2.60;2.40;;;;;;;;;;5015883;28;20314;-73
2022/01/09 08:46:50;;;;;;;2.80;2.60;;;;;;;;;;5050770;28;20238;-72
2022/01/09 08:49:16;;;;;;;3.13;2.87;;;;;;;;;;5048527;28;20215;-73
2022/01/09 08:51:42;;;;;;;3.30;3.00;;;;;;;;;;5044122;28;20224;-73
2022/01/09 08:54:08;;;;;;;2.93;2.73;;;;;;;;;;5047621;28;20242;-73
2022/01/09 08:56:38;;;;;;;3.50;3.20;;;;;;;;;;5046196;28;20220;-73
2022/01/09 08:59:06;;;;;;;3.20;2.90;;;;;;;;;;5046321;28;20713;-73
2022/01/09 09:01:36;;;;;;;3.40;3.10;;;;;;;;;;5031771;28;20277;-72
2022/01/09 09:04:02;;;;;;;3.67;3.17;;;;;;;;;;4998002;28;20223;-73
2022/01/09 09:06:32;;;;;;;3.70;3.40;;;;;;;;;;5030370;28;20235;-74
2022/01/09 09:09:00;;;;;;;3.63;3.33;;;;;;;;;;5032976;28;20215;-73
2022/01/09 09:11:28;;;;;;;4.33;3.93;;;;;;;;;;5032945;28;20683;-75
2022/01/09 09:13:56;;;;;;;3.80;3.50;;;;;;;;;;5033745;28;20302;-74
2022/01/09 09:16:24;;;;;;;32.93;21.23;;;;;;;;;;5034109;28;20226;-73
2022/01/09 09:18:57;;;;;;;31.00;17.87;;;;;;;;;;5047459;28;20215;-73
2022/01/09 09:21:24;;;;;;;21.83;13.77;;;;;;;;;;5045465;28;20297;-74
2022/01/09 09:23:52;;;;;;;6.27;5.27;;;;;;;;;;5021532;28;20701;-74
2022/01/09 09:26:21;;;;;;;4.20;3.80;;;;;;;;;;5039950;28;20216;-74
2022/01/09 09:28:47;;;;;;;3.87;3.57;;;;;;;;;;5040753;28;20223;-74
2022/01/09 09:31:15;;;;;;;4.07;3.77;;;;;;;;;;5015822;28;20672;-75
2022/01/09 09:33:43;;;;;;;3.60;3.30;;;;;;;;;;5014961;28;20354;-73
2022/01/09 09:36:16;;;;;;;3.00;2.80;;;;;;;;;;5016496;28;20684;-73
2022/01/09 09:38:41;;;;;;;2.97;2.77;;;;;;;;;;5023204;28;20963;-74
2022/01/09 09:41:11;;;;;;;3.10;2.80;;;;;;;;;;4997789;28;20228;-74
2022/01/09 09:43:37;;;;;;;3.00;2.80;;;;;;;;;;5051137;28;20791;-74
2022/01/09 09:46:03;;;;;;;2.50;2.30;;;;;;;;;;5048707;28;20314;-75
2022/01/09 09:48:28;;;;;;;2.73;2.53;;;;;;;;;;5042957;28;20219;-74
2022/01/09 09:50:54;;;;;;;2.70;2.50;;;;;;;;;;5028285;28;20234;-75
2022/01/09 09:53:20;;;;;;;2.20;2.10;;;;;;;;;;5031995;28;20223;-74
2022/01/09 09:55:53;;;;;;;2.47;2.27;;;;;;;;;;5033370;28;20652;-74
2022/01/09 09:58:19;;;;;;;2.50;2.30;;;;;;;;;;5055339;28;20281;-75
2022/01/09 10:00:58;;;;;;;2.77;2.57;;;;;;;;;;5018018;28;20262;-74
2022/01/09 10:03:35;;;;;;;2.67;2.47;;;;;;;;;;5018667;28;20219;-74
2022/01/09 10:06:03;;;;;;;3.40;3.10;;;;;;;;;;5044165;28;20228;-74
2022/01/09 10:08:36;;;;;;;3.47;2.47;;;;;;;;;;5020495;28;20242;-74
2022/01/09 10:11:15;;;;;;;0.10;0.10;;;;;;;;;;5025130;28;20263;-74
2022/01/09 10:13:45;;;;;;;0.20;0.20;;;;;;;;;;5010500;28;20224;-75
2022/01/09 10:16:14;;;;;;;0.10;0.10;;;;;;;;;;5028224;28;20212;-73
2022/01/09 10:18:49;;;;;;;0.10;0.10;;;;;;;;;;5036822;28;20223;-73
2022/01/09 10:21:22;;;;;;;0.20;0.20;;;;;;;;;;5028484;28;20224;-73
2022/01/09 10:24:05;;;;;;;0.10;0.10;;;;;;;;;;5029060;28;20220;-73
2022/01/09 10:26:34;;;;;;;0.20;0.20;;;;;;;;;;5034608;28;20260;-73
2022/01/09 10:29:03;;;;;;;0.20;0.20;;;;;;;;;;5034346;28;20234;-73
2022/01/09 10:31:29;;;;;;;0.10;0.10;;;;;;;;;;5051936;28;20226;-73
2022/01/09 10:34:08;;;;;;;0.10;0.10;;;;;;;;;;5035987;28;20235;-74
2022/01/09 10:36:47;;;;;;;0.10;0.10;;;;;;;;;;5025273;28;20696;-73
2022/01/09 10:39:14;;;;;;;0.13;0.13;;;;;;;;;;5054794;28;20227;-73
2022/01/09 10:41:48;;;;;;;2.40;2.27;;;;;;;;;;5033893;28;20314;-74
2022/01/09 10:44:18;;;;;;;0.40;0.40;;;;;;;;;;5049287;28;20251;-74
2022/01/09 10:46:59;;;;;;;0.73;0.73;;;;;;;;;;5014551;28;20235;-74
2022/01/09 10:49:43;;;;;;;0.17;0.17;;;;;;;;;;5022429;28;20226;-74
2022/01/09 10:52:21;;;;;;;0.60;0.60;;;;;;;;;;5048600;28;20236;-74
2022/01/09 10:54:50;;;;;;;0.13;0.13;;;;;;;;;;5057869;28;20617;-74
2022/01/09 10:57:15;;;;;;;0.40;0.40;;;;;;;;;;5014500;28;20215;-75
2022/01/09 10:59:41;;;;;;;0.10;0.10;;;;;;;;;;5042393;28;20238;-75
2022/01/09 11:02:10;;;;;;;0.37;0.37;;;;;;;;;;5032333;28;20224;-75
2022/01/09 11:04:42;;;;;;;0.10;0.10;;;;;;;;;;5053669;28;20227;-74
2022/01/09 11:07:08;;;;;;;0.10;0.10;;;;;;;;;;5048269;28;20226;-74
2022/01/09 11:09:36;;;;;;;0.10;0.10;;;;;;;;;;5052392;28;20215;-73
2022/01/09 11:12:06;;;;;;;0.30;0.30;;;;;;;;;;5023063;28;20228;-74
2022/01/09 11:14:40;;;;;;;0.20;0.20;;;;;;;;;;5033474;28;20238;-74
2022/01/09 11:17:07;;;;;;;0.20;0.20;;;;;;;;;;5007323;28;20220;-74
2022/01/09 11:19:35;;;;;;;0.10;0.10;;;;;;;;;;5032772;28;20216;-75
2022/01/09 11:22:03;;;;;;;0.17;0.17;;;;;;;;;;5015759;28;20227;-74
2022/01/09 11:24:51;;;;;;;1.13;1.13;;;;;;;;;;5025777;28;20215;-75
2022/01/09 11:27:16;;;;;;;0.23;0.23;;;;;;;;;;5050663;28;20698;-74
2022/01/09 11:29:48;;;;;;;0.30;0.30;;;;;;;;;;5049935;28;20298;-74
2022/01/09 11:32:38;;;;;;;0.10;0.10;;;;;;;;;;5053007;28;20336;-75
2022/01/09 11:35:31;;;;;;;0.10;0.10;;;;;;;;;;5051872;28;20704;-74
2022/01/09 11:38:19;;;;;;;0.30;0.30;;;;;;;;;;5041210;28;20281;-74
2022/01/09 11:40:45;;;;;;;0.40;0.40;;;;;;;;;;5025052;28;20223;-74
2022/01/09 11:43:14;;;;;;;0.63;0.63;;;;;;;;;;5000585;28;20216;-75
2022/01/09 11:45:49;;;;;;;0.53;0.43;;;;;;;;;;5014074;28;20295;-75
2022/01/09 11:48:21;;;;;;;0.50;0.50;;;;;;;;;;5010863;28;20217;-74
2022/01/09 11:51:04;;;;;;;0.10;0.10;;;;;;;;;;5009071;28;20221;-75
2022/01/09 11:54:04;;;;;;;0.57;0.57;;;;;;;;;;5043066;28;20736;-75
2022/01/09 11:56:51;;;;;;;0.37;0.37;;;;;;;;;;5047745;28;20220;-74
2022/01/09 11:59:37;;;;;;;0.13;0.13;;;;;;;;;;5023244;28;20275;-75
2022/01/09 12:02:29;;;;;;;0.10;0.10;;;;;;;;;;5024103;28;20243;-74
2022/01/09 12:04:58;;;;;;;0.20;0.20;;;;;;;;;;5030606;28;20702;-74
2022/01/09 12:07:33;;;;;;;0.20;0.20;;;;;;;;;;5006593;28;20224;-75
2022/01/09 12:10:00;;;;;;;0.10;0.10;;;;;;;;;;5026449;28;20232;-74
2022/01/09 12:12:35;;;;;;;0.10;0.10;;;;;;;;;;5006368;28;20308;-74
2022/01/09 12:15:04;;;;;;;0.10;0.10;;;;;;;;;;5003944;28;20228;-74
2022/01/09 12:17:33;;;;;;;0.10;0.10;;;;;;;;;;5022983;28;20234;-74
2022/01/09 12:20:11;;;;;;;23.13;0.97;;;;;;;;;;5042386;28;20255;-74
2022/01/09 12:22:49;;;;;;;2.93;1.70;;;;;;;;;;5021445;28;20224;-75
2022/01/09 12:25:28;;;;;;;0.23;0.23;;;;;;;;;;5028109;28;20223;-74
2022/01/09 12:28:05;;;;;;;0.10;0.10;;;;;;;;;;5030225;28;20247;-76
2022/01/09 12:30:33;;;;;;;0.10;0.10;;;;;;;;;;5038441;28;20276;-74
2022/01/09 12:33:05;;;;;;;0.10;0.10;;;;;;;;;;5020906;28;20699;-75
2022/01/09 12:35:31;;;;;;;0.10;0.10;;;;;;;;;;5014401;28;20281;-74
2022/01/09 12:37:58;;;;;;;0.10;0.10;;;;;;;;;;4998444;28;20216;-75
2022/01/09 12:40:24;;;;;;;0.20;0.20;;;;;;;;;;5014486;28;20222;-76
2022/01/09 12:42:57;;;;;;;0.10;0.10;;;;;;;;;;5033776;28;20215;-74
2022/01/09 12:45:33;;;;;;;0.20;0.20;;;;;;;;;;4998645;28;20239;-74
2022/01/09 12:48:00;;;;;;;0.10;0.10;;;;;;;;;;5030561;28;20226;-74
2022/01/09 12:50:29;;;;;;;2.63;2.43;;;;;;;;;;5011127;28;20220;-74
2022/01/09 12:53:29;;;;;;;0.10;0.10;;;;;;;;;;5030868;28;20242;-75
2022/01/09 12:56:04;;;;;;;0.50;0.50;;;;;;;;;;5032566;28;20232;-73
2022/01/09 12:58:40;;;;;;;0.10;0.10;;;;;;;;;;5050927;28;20251;-74
2022/01/09 13:01:19;;;;;;;0.10;0.10;;;;;;;;;;5050519;28;20231;-73
2022/01/09 13:03:47;;;;;;;0.10;0.10;;;;;;;;;;5050556;28;20227;-75
2022/01/09 13:06:16;;;;;;;1.80;0.43;;;;;;;;;;5014777;28;20223;-74
2022/01/09 13:08:49;;;;;;;0.67;0.67;;;;;;;;;;5026624;28;20216;-74
2022/01/09 13:11:18;;;;;;;0.40;0.30;;;;;;;;;;5049313;28;20320;-74
2022/01/09 13:13:47;;;;;;;0.43;0.43;;;;;;;;;;5045452;28;20239;-73
2022/01/09 13:16:27;;;;;;;0.17;0.17;;;;;;;;;;5032294;28;20235;-74
2022/01/09 13:18:59;;;;;;;1.20;1.10;;;;;;;;;;5024770;28;20424;-73
2022/01/09 13:21:54;;;;;;;0.40;0.40;;;;;;;;;;5016719;28;20276;-72
2022/01/09 13:24:21;;;;;;;0.27;0.27;;;;;;;;;;5045418;28;20306;-72
2022/01/09 13:26:54;;;;;;;0.00;0.00;;;;;;;;;;5034217;28;20697;-74
2022/01/09 13:29:26;;;;;;;0.00;0.00;;;;;;;;;;5037603;28;20235;-75
2022/01/09 13:32:06;;;;;;;0.07;0.07;;;;;;;;;;5014270;28;20224;-73
2022/01/09 13:34:35;;;;;;;0.00;0.00;;;;;;;;;;5008402;28;20285;-74
2022/01/09 13:37:11;;;;;;;0.00;0.00;;;;;;;;;;5049190;28;20219;-73
2022/01/09 13:39:46;;;;;;;0.32;0.32;;;;;;;;;;5049977;28;20473;-72
2022/01/09 13:42:24;;;;;;;0.00;0.00;;;;;;;;;;5033446;28;20237;-71
2022/01/09 13:45:00;;;;;;;0.10;0.10;;;;;;;;;;5050376;28;20294;-72
2022/01/09 13:47:27;;;;;;;0.37;0.37;;;;;;;;;;5017156;28;20219;-74
2022/01/09 13:49:52;;;;;;;0.10;0.10;;;;;;;;;;5033262;28;20604;-73
2022/01/09 13:52:22;;;;;;;4.13;1.33;;;;;;;;;;5048789;28;20228;-77
2022/01/09 13:55:07;;;;;;;0.20;0.20;;;;;;;;;;5051541;28;20607;-72
2022/01/09 13:58:07;;;;;;;0.10;0.10;;;;;;;;;;5029662;28;20224;-73
2022/01/09 14:00:40;;;;;;;0.10;0.10;;;;;;;;;;5029692;28;20239;-73
2022/01/09 14:03:10;;;;;;;0.10;0.10;;;;;;;;;;4997855;28;20231;-73
2022/01/09 14:05:40;;;;;;;0.33;0.33;;;;;;;;;;4997562;28;20273;-72
2022/01/09 14:08:06;;;;;;;0.10;0.10;;;;;;;;;;5012923;28;20216;-73
2022/01/09 14:10:37;;;;;;;1.93;1.40;;;;;;;;;;5005608;28;20262;-73
2022/01/09 14:13:25;;;;;;;0.57;0.57;;;;;;;;;;4981208;28;20236;-72
2022/01/09 14:15:51;;;;;;;0.87;0.87;;;;;;;;;;4995718;28;20239;-73
2022/01/09 14:18:26;;;;;;;0.77;0.77;;;;;;;;;;5013388;28;20224;-71
2022/01/09 14:21:09;;;;;;;0.10;0.10;;;;;;;;;;5003722;28;20239;-72
2022/01/09 14:23:39;;;;;;;0.10;0.10;;;;;;;;;;5010733;28;20221;-73
2022/01/09 14:26:11;;;;;;;0.10;0.10;;;;;;;;;;4995832;28;20228;-73
2022/01/09 14:28:40;;;;;;;1.40;1.03;;;;;;;;;;5030387;28;20220;-72
2022/01/09 14:31:06;;;;;;;0.10;0.10;;;;;;;;;;4992875;28;20315;-72
2022/01/09 14:33:37;;;;;;;0.10;0.10;;;;;;;;;;5013902;28;20231;-73
2022/01/09 14:36:05;;;;;;;0.30;0.30;;;;;;;;;;5016039;28;20286;-73
2022/01/09 14:38:38;;;;;;;0.10;0.10;;;;;;;;;;5030176;28;20217;-71
2022/01/09 14:41:05;;;;;;;0.60;0.60;;;;;;;;;;5029715;28;20227;-73
2022/01/09 14:43:35;;;;;;;2.37;0.73;;;;;;;;;;5016966;28;20271;-72
2022/01/09 14:46:01;;;;;;;0.10;0.10;;;;;;;;;;5014536;28;20297;-74
2022/01/09 14:48:34;;;;;;;0.10;0.10;;;;;;;;;;5053863;28;20223;-74
2022/01/09 14:51:06;;;;;;;0.10;0.10;;;;;;;;;;5037043;28;20216;-72
2022/01/09 14:53:33;;;;;;;0.10;0.10;;;;;;;;;;5043496;28;20589;-73
2022/01/09 14:56:01;;;;;;;0.10;0.10;;;;;;;;;;5031477;28;20293;-73
2022/01/09 14:58:27;;;;;;;0.10;0.10;;;;;;;;;;5063813;28;20218;-73